Terminal Aerodrome Forecast
Issued by NWS Shreveport, LA

Home | Current Version | Previous Version | Text Only | Print | Product List | Glossary On
Versions: 1 2 3 4 5 6 7 8 9 10 11 12 13 14
000
FTUS44 KSHV 261149
TAFLFK
TAF
KLFK 261149Z 2612/2712 13003KT P6SM FEW090 BKN150
     FM261500 24005KT P6SM SCT035 BKN150
     FM262000 24005KT P6SM BKN050
     FM270100 11003KT P6SM SCT250
     FM270900 14003KT 4SM BR SCT250=

USA.gov is the U.S. government's official web portal to all federal, state and local government web resources and services.